Time;durP1;ratioP1;P1;durP2;ratioP2;P2;SDS_P1;SDS_P2;PMS_P1;PMS_P2;Temp;Humidity;BMP_temperature;BMP_pressure;BME280_temperature;BME280_humidity;BME280_pressure;Samples;Min_cycle;Max_cycle;Signal;HPM_P1;HPM_P2
2023/08/31 00:06:25;;;;;;;;;;;13.50;99.90;;;;;;6634409;88;20087;-75
2023/08/31 00:16:26;;;;;;;;;;;13.40;99.90;;;;;;6647874;89;20078;-76
2023/08/31 00:26:27;;;;;;;;;;;13.40;99.90;;;;;;6647786;88;20106;-75
2023/08/31 00:36:28;;;;;;;;;;;13.40;99.90;;;;;;6646409;89;20119;-75
2023/08/31 00:46:29;;;;;;;;;;;13.50;99.90;;;;;;6645447;88;20109;-76
2023/08/31 00:56:29;;;;;;;;;;;13.40;99.90;;;;;;6632918;89;20070;-77
2023/08/31 01:06:49;;;;;;;;;;;13.40;99.90;;;;;;6638074;89;20115;-77
2023/08/31 01:16:50;;;;;;;;;;;13.40;99.90;;;;;;6639109;89;20057;-76
2023/08/31 01:26:52;;;;;;;;;;;13.50;99.90;;;;;;6651443;89;20513;-76
2023/08/31 01:36:58;;;;;;;;;;;13.40;99.90;;;;;;6646640;89;20053;-75
2023/08/31 01:47:01;;;;;;;;;;;13.30;99.90;;;;;;6648209;89;20497;-76
2023/08/31 01:57:02;;;;;;;;;;;13.20;99.90;;;;;;6648320;88;20061;-74
2023/08/31 02:07:03;;;;;;;;;;;13.10;99.90;;;;;;6636863;89;20568;-74
2023/08/31 02:17:03;;;;;;;;;;;13.20;99.90;;;;;;6657802;88;20187;-75
2023/08/31 02:27:04;;;;;;;;;;;12.90;99.90;;;;;;6646290;88;20061;-77
2023/08/31 02:37:04;;;;;;;;;;;12.70;99.90;;;;;;6646471;88;20061;-76
2023/08/31 02:47:05;;;;;;;;;;;12.60;99.90;;;;;;6682259;76;20053;-75
2023/08/31 02:57:05;;;;;;;;;;;12.30;99.90;;;;;;6733136;88;20079;-77
2023/08/31 03:07:06;;;;;;;;;;;12.20;99.90;;;;;;6732912;88;20096;-77
2023/08/31 03:17:06;;;;;;;;;;;12.20;99.90;;;;;;6717493;88;20301;-77
2023/08/31 03:27:07;;;;;;;;;;;12.10;99.90;;;;;;6732458;88;20082;-76
2023/08/31 03:37:07;;;;;;;;;;;11.90;99.90;;;;;;6724131;88;20085;-77
2023/08/31 03:47:08;;;;;;;;;;;11.70;99.90;;;;;;6723826;88;20062;-77
2023/08/31 03:57:08;;;;;;;;;;;11.90;99.90;;;;;;6720894;88;20076;-77
2023/08/31 04:07:09;;;;;;;;;;;12.10;99.90;;;;;;6716235;88;20071;-76
2023/08/31 04:17:09;;;;;;;;;;;12.10;99.90;;;;;;6715572;88;20058;-76
2023/08/31 04:27:09;;;;;;;;;;;12.10;99.90;;;;;;6711490;88;20117;-77
2023/08/31 04:37:10;;;;;;;;;;;12.10;99.90;;;;;;6720665;88;20187;-77
2023/08/31 04:47:11;;;;;;;;;;;12.10;99.90;;;;;;6726800;88;20736;-77
2023/08/31 04:57:11;;;;;;;;;;;12.10;99.90;;;;;;6727682;88;20078;-76
2023/08/31 05:07:11;;;;;;;;;;;12.00;99.90;;;;;;6719679;88;20664;-77
2023/08/31 05:17:12;;;;;;;;;;;12.00;99.90;;;;;;6731201;88;20050;-76
2023/08/31 05:27:12;;;;;;;;;;;11.80;99.90;;;;;;6731339;88;20118;-77
2023/08/31 05:37:14;;;;;;;;;;;11.80;99.90;;;;;;6730443;88;20104;-77
2023/08/31 05:47:14;;;;;;;;;;;12.00;99.90;;;;;;6733920;88;20074;-77
2023/08/31 05:57:18;;;;;;;;;;;12.10;99.90;;;;;;6717638;88;20513;-77
2023/08/31 06:07:19;;;;;;;;;;;12.30;99.90;;;;;;6720602;88;20165;-78
2023/08/31 06:17:19;;;;;;;;;;;12.50;99.90;;;;;;6718992;88;20211;-78
2023/08/31 06:27:20;;;;;;;;;;;12.80;99.90;;;;;;6719562;88;20218;-77
2023/08/31 06:37:20;;;;;;;;;;;13.20;99.90;;;;;;6728218;88;20197;-77
2023/08/31 06:47:20;;;;;;;;;;;13.70;99.90;;;;;;6721233;88;20557;-78
2023/08/31 06:57:22;;;;;;;;;;;14.30;99.90;;;;;;6719653;88;20121;-78
2023/08/31 07:07:22;;;;;;;;;;;14.70;99.90;;;;;;6722812;88;20249;-78
2023/08/31 07:17:23;;;;;;;;;;;15.10;99.90;;;;;;6746763;88;20135;-80
2023/08/31 07:27:23;;;;;;;;;;;15.80;99.90;;;;;;6741036;88;20062;-79
2023/08/31 07:37:23;;;;;;;;;;;16.60;99.90;;;;;;6741405;88;20160;-77
2023/08/31 07:47:24;;;;;;;;;;;17.10;99.90;;;;;;6739756;88;20078;-77
2023/08/31 07:57:24;;;;;;;;;;;18.10;99.90;;;;;;6744437;88;20055;-77
2023/08/31 08:07:25;;;;;;;;;;;18.30;99.90;;;;;;6738711;88;20051;-77
2023/08/31 08:17:25;;;;;;;;;;;19.10;99.90;;;;;;6738800;88;20143;-76
2023/08/31 08:27:26;;;;;;;;;;;18.70;99.90;;;;;;6734143;88;20059;-76
2023/08/31 08:37:29;;;;;;;;;;;19.90;99.90;;;;;;6732305;88;20062;-77
2023/08/31 08:47:29;;;;;;;;;;;19.60;99.90;;;;;;6737092;76;20069;-77
2023/08/31 08:57:30;;;;;;;;;;;18.50;99.90;;;;;;6724270;88;20067;-73
2023/08/31 09:07:34;;;;;;;;;;;19.40;99.90;;;;;;6722620;88;20083;-76
2023/08/31 09:17:43;;;;;;;;;;;20.30;99.90;;;;;;6737484;88;20063;-77
2023/08/31 09:27:44;;;;;;;;;;;20.30;99.90;;;;;;6726611;88;20064;-77
2023/08/31 09:37:55;;;;;;;;;;;20.90;99.90;;;;;;6732076;88;20075;-77
2023/08/31 09:47:55;;;;;;;;;;;20.20;99.90;;;;;;6726113;88;20546;-78
2023/08/31 09:58:00;;;;;;;;;;;20.10;99.90;;;;;;6724649;88;20082;-77
2023/08/31 10:08:01;;;;;;;;;;;19.90;99.90;;;;;;6725579;88;20177;-75
2023/08/31 10:18:03;;;;;;;;;;;20.40;99.90;;;;;;6725640;88;21364;-77
2023/08/31 10:28:16;;;;;;;;;;;22.70;99.90;;;;;;6729476;88;20212;-78
2023/08/31 10:38:22;;;;;;;;;;;22.60;99.90;;;;;;6723284;88;20072;-78
2023/08/31 10:48:23;;;;;;;;;;;22.50;99.50;;;;;;6725076;88;20211;-75
2023/08/31 10:58:31;;;;;;;;;;;22.40;99.10;;;;;;6723388;88;20126;-76
2023/08/31 11:08:31;;;;;;;;;;;22.30;99.20;;;;;;6732479;88;20143;-77
2023/08/31 11:18:32;;;;;;;;;;;20.70;99.90;;;;;;6721747;88;20515;-75
2023/08/31 11:28:33;;;;;;;;;;;21.30;99.90;;;;;;6723115;88;20164;-76
2023/08/31 11:38:35;;;;;;;;;;;20.80;99.90;;;;;;6723018;88;20130;-77
2023/08/31 11:48:35;;;;;;;;;;;22.90;99.90;;;;;;6722544;88;20112;-76
2023/08/31 11:58:42;;;;;;;;;;;24.70;96.60;;;;;;6720718;88;20530;-76
2023/08/31 12:08:43;;;;;;;;;;;23.50;96.20;;;;;;6722572;88;20555;-77
2023/08/31 12:18:43;;;;;;;;;;;22.10;97.60;;;;;;6721503;88;20075;-78
2023/08/31 12:28:44;;;;;;;;;;;21.60;99.90;;;;;;6724353;88;20619;-77
2023/08/31 12:38:44;;;;;;;;;;;20.90;99.90;;;;;;6726784;88;20063;-76
2023/08/31 12:48:44;;;;;;;;;;;21.10;99.90;;;;;;6722742;88;20128;-78
2023/08/31 12:58:45;;;;;;;;;;;22.40;99.90;;;;;;6727176;88;20149;-78
2023/08/31 13:08:45;;;;;;;;;;;24.20;99.90;;;;;;6727143;88;20070;-76
2023/08/31 13:18:46;;;;;;;;;;;22.20;99.90;;;;;;6730251;88;20576;-76
2023/08/31 13:28:46;;;;;;;;;;;21.90;99.90;;;;;;6729291;88;20222;-78
2023/08/31 13:38:47;;;;;;;;;;;22.50;99.90;;;;;;6722420;88;20729;-77
2023/08/31 13:48:48;;;;;;;;;;;21.90;99.90;;;;;;6720406;88;20079;-76
2023/08/31 13:58:48;;;;;;;;;;;21.70;99.90;;;;;;6719734;88;20263;-76
2023/08/31 14:08:49;;;;;;;;;;;21.90;99.90;;;;;;6725013;88;20599;-77
2023/08/31 14:18:49;;;;;;;;;;;20.80;99.90;;;;;;6730666;88;20134;-74
2023/08/31 14:28:51;;;;;;;;;;;20.60;99.90;;;;;;6722191;88;20086;-76
2023/08/31 14:38:51;;;;;;;;;;;19.40;99.90;;;;;;6724862;88;20090;-75
2023/08/31 14:48:52;;;;;;;;;;;18.70;99.90;;;;;;6662130;77;20081;-75
2023/08/31 14:58:52;;;;;;;;;;;18.50;99.90;;;;;;6630382;88;20140;-75
2023/08/31 15:08:53;;;;;;;;;;;18.90;99.90;;;;;;6631934;88;20538;-75
2023/08/31 15:18:53;;;;;;;;;;;18.80;99.90;;;;;;6631056;88;20097;-75
2023/08/31 15:28:54;;;;;;;;;;;18.90;99.90;;;;;;6631215;89;20544;-75
2023/08/31 15:38:54;;;;;;;;;;;18.70;99.90;;;;;;6635934;88;20073;-74
2023/08/31 15:48:54;;;;;;;;;;;18.50;99.90;;;;;;6634186;88;20081;-74
2023/08/31 15:58:55;;;;;;;;;;;18.60;99.90;;;;;;6634879;88;20070;-76
2023/08/31 16:08:56;;;;;;;;;;;18.70;99.90;;;;;;6639684;88;20598;-75
2023/08/31 16:18:56;;;;;;;;;;;18.60;99.90;;;;;;6639319;89;20094;-75
2023/08/31 16:28:57;;;;;;;;;;;18.60;99.90;;;;;;6646170;88;20080;-74
2023/08/31 16:38:57;;;;;;;;;;;18.70;99.90;;;;;;6647965;88;20077;-74
2023/08/31 16:48:57;;;;;;;;;;;18.70;99.90;;;;;;6638182;89;20058;-76
2023/08/31 16:58:59;;;;;;;;;;;18.80;99.90;;;;;;6637692;89;20090;-75
2023/08/31 17:08:59;;;;;;;;;;;18.70;99.90;;;;;;6640046;88;20562;-74
2023/08/31 17:19:00;;;;;;;;;;;18.70;99.90;;;;;;6648381;88;20106;-75
2023/08/31 17:29:00;;;;;;;;;;;18.60;99.90;;;;;;6645349;88;20089;-74
2023/08/31 17:39:00;;;;;;;;;;;18.40;99.90;;;;;;6642258;87;20125;-75
2023/08/31 17:49:01;;;;;;;;;;;18.30;99.90;;;;;;6640502;88;21520;-75
2023/08/31 17:59:04;;;;;;;;;;;18.20;99.90;;;;;;6643925;88;20088;-75
2023/08/31 18:09:05;;;;;;;;;;;18.00;99.90;;;;;;6633844;88;20088;-75
2023/08/31 18:19:06;;;;;;;;;;;17.80;99.90;;;;;;6640540;88;20105;-76
2023/08/31 18:29:06;;;;;;;;;;;17.70;99.90;;;;;;6639011;88;20580;-75
2023/08/31 18:39:07;;;;;;;;;;;17.50;99.90;;;;;;6651009;88;20090;-75
2023/08/31 18:49:07;;;;;;;;;;;17.30;99.90;;;;;;6647866;89;20085;-75
2023/08/31 18:59:08;;;;;;;;;;;17.20;99.90;;;;;;6646333;89;20065;-75
2023/08/31 19:09:08;;;;;;;;;;;17.00;99.90;;;;;;6654682;88;20590;-76
2023/08/31 19:19:09;;;;;;;;;;;16.80;99.90;;;;;;6643400;88;20103;-75
2023/08/31 19:29:10;;;;;;;;;;;16.80;99.90;;;;;;6647428;88;20124;-76
2023/08/31 19:43:34;;;;;;;;;;;16.60;99.90;;;;;;6779908;86;20162;-76
2023/08/31 19:53:34;;;;;;;;;;;16.40;99.90;;;;;;6771961;87;20219;-77
2023/08/31 20:03:37;;;;;;;;;;;16.30;99.90;;;;;;6776811;87;20053;-76
2023/08/31 20:13:38;;;;;;;;;;;16.40;99.90;;;;;;6773968;87;20139;-75
2023/08/31 20:23:38;;;;;;;;;;;16.10;99.90;;;;;;6775672;87;20078;-76
2023/08/31 20:33:40;;;;;;;;;;;15.70;99.90;;;;;;6772138;87;20056;-77
2023/08/31 20:43:40;;;;;;;;;;;15.50;99.90;;;;;;6774044;87;20121;-76
2023/08/31 20:53:40;;;;;;;;;;;15.30;99.90;;;;;;6762871;87;20161;-77
2023/08/31 21:03:42;;;;;;;;;;;15.40;99.90;;;;;;6763813;87;20181;-77
2023/08/31 21:13:43;;;;;;;;;;;15.40;99.90;;;;;;6760197;87;20079;-76
2023/08/31 21:23:43;;;;;;;;;;;15.20;99.90;;;;;;6760824;87;20104;-76
2023/08/31 21:33:44;;;;;;;;;;;15.20;99.90;;;;;;6756886;87;20048;-75
2023/08/31 21:43:44;;;;;;;;;;;15.10;99.90;;;;;;6744061;88;20070;-75
2023/08/31 21:53:45;;;;;;;;;;;15.20;99.90;;;;;;6749126;88;20525;-76
2023/08/31 22:03:45;;;;;;;;;;;15.20;99.90;;;;;;6745875;88;20049;-76
2023/08/31 22:13:46;;;;;;;;;;;15.30;99.90;;;;;;6743097;88;20103;-75
2023/08/31 22:23:46;;;;;;;;;;;15.30;99.90;;;;;;6738429;88;20091;-76
2023/08/31 22:33:47;;;;;;;;;;;15.40;99.90;;;;;;6743702;88;20059;-76
2023/08/31 22:43:47;;;;;;;;;;;15.50;99.90;;;;;;6742603;88;20069;-76
2023/08/31 22:53:47;;;;;;;;;;;15.50;99.90;;;;;;6741396;88;20081;-76
2023/08/31 23:03:48;;;;;;;;;;;15.60;99.90;;;;;;6740491;88;20523;-77
2023/08/31 23:13:50;;;;;;;;;;;15.60;99.90;;;;;;6741379;88;20045;-76
2023/08/31 23:23:50;;;;;;;;;;;15.60;99.90;;;;;;6742187;88;20430;-74
2023/08/31 23:33:51;;;;;;;;;;;15.50;99.90;;;;;;6744232;88;20042;-76
2023/08/31 23:43:52;;;;;;;;;;;15.60;99.90;;;;;;6744023;88;20072;-77
2023/08/31 23:53:53;;;;;;;;;;;15.50;99.90;;;;;;6741258;88;20422;-76
